Terminal Aerodrome Forecast
Issued by NWS Mt. Holly, NJ

Home | Current Version | Previous Version | Text Only | Print | Product List | Glossary On
Versions: 1 2 3 4 5 6 7 8 9 10 11 12 13 14 15 16 17
000
FTAK31 PANC 271127
TAFABE
TAF
PABE 271127Z 2712/2812 03008KT P6SM SKC
     FM271700 03015KT P6SM SKC
     FM272200 04015G25KT P6SM SKC
     FM280500 05010KT P6SM SCT060 SCT250
     FM280700 VRB06KT P6SM FEW060 SCT250=

USA.gov is the U.S. government's official web portal to all federal, state and local government web resources and services.